Terminal Aerodrome Forecast
Issued by NWS Billings, MT

Home | Current Version | Previous Version | Graphics & Text | Print | Product List | Glossary On
Versions: 1 2 3 4 5 6 7 8 9 10 11 12 13 14 15 16 17 18 19 20 21 22 23 24 25 26
000
FTUS45 KBYZ 300525
TAFMLS
TAF
KMLS 300525Z 3006/3106 16009KT P6SM FEW200
     FM300800 17006KT P6SM SCT200
     FM301600 30007KT P6SM SKC
     FM301800 29007KT P6SM SKC
     FM310100 07005KT P6SM SKC=

USA.gov is the U.S. government's official web portal to all federal, state and local government web resources and services.